createdAt,value
2023-04-16T00:01:17.832Z,10.20
2023-04-16T00:03:45.239Z,10.57
2023-04-16T00:06:12.858Z,11.32
2023-04-16T00:08:41.101Z,9.65
2023-04-16T00:11:08.460Z,9.48
2023-04-16T00:13:35.784Z,9.25
2023-04-16T00:16:03.190Z,10.13
2023-04-16T00:18:30.922Z,10.05
2023-04-16T00:20:59.552Z,10.05
2023-04-16T00:23:26.845Z,9.60
2023-04-16T00:25:57.165Z,9.07
2023-04-16T00:28:24.479Z,8.85
2023-04-16T00:30:51.943Z,7.97
2023-04-16T00:33:19.365Z,9.00
2023-04-16T00:35:47.807Z,8.60
2023-04-16T00:38:15.845Z,8.77
2023-04-16T00:40:43.221Z,9.50
2023-04-16T00:43:10.605Z,8.82
2023-04-16T00:45:38.976Z,8.60
2023-04-16T00:48:06.370Z,8.70
2023-04-16T00:50:33.986Z,8.70
2023-04-16T00:53:02.225Z,9.05
2023-04-16T00:55:29.769Z,8.23
2023-04-16T00:57:57.107Z,8.20
2023-04-16T01:00:24.524Z,7.85
2023-04-16T01:02:52.432Z,7.72
2023-04-16T01:05:20.941Z,8.35
2023-04-16T01:07:48.498Z,8.40
2023-04-16T01:10:15.806Z,8.25
2023-04-16T01:12:43.137Z,7.82
2023-04-16T01:15:11.354Z,8.90
2023-04-16T01:17:38.982Z,8.60
2023-04-16T01:20:07.069Z,8.13
2023-04-16T01:22:34.419Z,9.13
2023-04-16T01:25:01.723Z,8.35
2023-04-16T01:27:29.860Z,8.45
2023-04-16T01:29:57.105Z,7.82
2023-04-16T01:32:36.230Z,7.35
2023-04-16T01:35:03.813Z,8.65
2023-04-16T01:37:31.530Z,8.30
2023-04-16T01:39:58.843Z,7.78
2023-04-16T01:42:26.247Z,8.75
2023-04-16T01:44:53.644Z,8.18
2023-04-16T01:47:21.474Z,9.57
2023-04-16T01:49:48.942Z,9.15
2023-04-16T01:52:16.759Z,8.00
2023-04-16T01:54:44.109Z,9.10
2023-04-16T01:57:11.485Z,8.73
2023-04-16T01:59:38.806Z,9.43
2023-04-16T02:02:12.372Z,9.02
2023-04-16T02:04:41.415Z,8.57
2023-04-16T02:07:09.181Z,8.40
2023-04-16T02:09:40.804Z,8.02
2023-04-16T02:12:09.634Z,7.80
2023-04-16T02:14:36.967Z,7.45
2023-04-16T02:17:05.352Z,8.00
2023-04-16T02:19:41.182Z,9.05
2023-04-16T02:22:10.161Z,10.82
2023-04-16T02:24:37.478Z,9.85
2023-04-16T02:27:08.804Z,9.52
2023-04-16T02:29:36.435Z,7.68
2023-04-16T02:32:11.099Z,8.05
2023-04-16T02:34:40.263Z,9.10
2023-04-16T02:37:08.368Z,9.32
2023-04-16T02:39:35.671Z,9.20
2023-04-16T02:42:03.112Z,9.98
2023-04-16T02:44:30.502Z,9.48
2023-04-16T02:46:57.830Z,8.43
2023-04-16T02:49:25.133Z,6.07
2023-04-16T02:51:52.478Z,7.00
2023-04-16T02:54:19.858Z,9.40
2023-04-16T02:56:47.153Z,10.55
2023-04-16T02:59:14.503Z,10.18
2023-04-16T03:01:41.982Z,9.98
2023-04-16T03:04:09.616Z,10.00
2023-04-16T03:06:37.040Z,10.63
2023-04-16T03:09:04.407Z,10.40
2023-04-16T03:11:31.778Z,9.70
2023-04-16T03:13:59.799Z,9.65
2023-04-16T03:16:27.219Z,9.15
2023-04-16T03:18:54.562Z,10.20
2023-04-16T03:21:21.898Z,9.20
2023-04-16T03:23:49.291Z,8.82
2023-04-16T03:26:16.606Z,8.93
2023-04-16T03:28:44.007Z,9.07
2023-04-16T03:31:11.903Z,7.87
2023-04-16T03:33:39.780Z,7.97
2023-04-16T03:36:07.545Z,9.90
2023-04-16T03:38:34.893Z,10.20
2023-04-16T03:41:02.220Z,9.50
2023-04-16T03:43:32.788Z,8.73
2023-04-16T03:46:00.258Z,9.87
2023-04-16T03:48:27.692Z,9.53
2023-04-16T03:50:55.005Z,10.27
2023-04-16T03:53:22.495Z,9.87
2023-04-16T03:55:54.213Z,10.93
2023-04-16T03:58:22.496Z,10.47
2023-04-16T04:00:49.800Z,9.40
2023-04-16T04:03:18.774Z,8.07
2023-04-16T04:05:48.754Z,8.97
2023-04-16T04:08:21.694Z,10.07
2023-04-16T04:10:49.158Z,9.27
2023-04-16T04:13:16.536Z,10.00
2023-04-16T04:15:44.749Z,10.03
2023-04-16T04:18:12.164Z,10.20
2023-04-16T04:20:41.193Z,12.00
2023-04-16T04:23:09.167Z,10.57
2023-04-16T04:25:36.576Z,9.93
2023-04-16T04:28:04.045Z,10.73
2023-04-16T04:30:31.359Z,10.57
2023-04-16T04:32:58.742Z,10.60
2023-04-16T04:35:26.107Z,11.23
2023-04-16T04:37:53.844Z,10.27
2023-04-16T04:40:21.689Z,10.70
2023-04-16T04:42:49.249Z,10.20
2023-04-16T04:45:16.833Z,10.25
2023-04-16T04:47:44.197Z,9.70
2023-04-16T04:50:11.600Z,10.65
2023-04-16T04:52:39.297Z,10.30
2023-04-16T04:55:08.395Z,10.83
2023-04-16T04:57:36.408Z,10.40
2023-04-16T05:00:05.799Z,10.25
2023-04-16T05:02:41.824Z,9.00
2023-04-16T05:05:09.535Z,9.65
2023-04-16T05:07:37.168Z,9.20
2023-04-16T05:10:05.088Z,9.43
2023-04-16T05:12:32.383Z,9.45
2023-04-16T05:14:59.690Z,9.13
2023-04-16T05:17:27.049Z,8.02
2023-04-16T05:19:54.371Z,8.70
2023-04-16T05:22:21.705Z,9.48
2023-04-16T05:24:49.063Z,8.65
2023-04-16T05:27:16.582Z,9.07
2023-04-16T05:29:43.974Z,8.70
2023-04-16T05:32:11.298Z,7.82
2023-04-16T05:34:38.598Z,8.82
2023-04-16T05:37:05.904Z,8.77
2023-04-16T05:39:33.224Z,7.78
2023-04-16T05:42:01.025Z,8.38
2023-04-16T05:44:28.428Z,8.23
2023-04-16T05:46:55.803Z,8.57
2023-04-16T05:49:23.235Z,9.57
2023-04-16T05:51:51.062Z,9.32
2023-04-16T05:54:18.562Z,8.68
2023-04-16T05:56:45.829Z,8.88
2023-04-16T05:59:13.172Z,9.38
2023-04-16T06:01:41.016Z,8.55
2023-04-16T06:04:08.571Z,9.10
2023-04-16T06:06:37.467Z,8.82
2023-04-16T06:09:04.881Z,8.63
2023-04-16T06:11:33.241Z,8.10
2023-04-16T06:14:01.468Z,8.02
2023-04-16T06:16:28.809Z,8.57
2023-04-16T06:18:56.163Z,8.18
2023-04-16T06:21:23.456Z,8.43
2023-04-16T06:23:50.757Z,8.75
2023-04-16T06:26:18.304Z,8.57
2023-04-16T06:28:46.735Z,8.40
2023-04-16T06:31:14.087Z,8.25
2023-04-16T06:33:41.543Z,8.52
2023-04-16T06:36:08.824Z,8.05
2023-04-16T06:38:37.112Z,9.13
2023-04-16T06:41:04.838Z,8.52
2023-04-16T06:43:33.608Z,8.30
2023-04-16T06:46:00.949Z,8.32
2023-04-16T06:48:28.383Z,7.55
2023-04-16T06:50:56.321Z,8.02
2023-04-16T06:53:23.993Z,8.57
2023-04-16T06:55:51.468Z,8.40
2023-04-16T06:58:18.811Z,8.55
2023-04-16T07:00:46.217Z,7.95
2023-04-16T07:03:14.183Z,9.88
2023-04-16T07:05:41.569Z,11.35
2023-04-16T07:08:08.897Z,14.60
2023-04-16T07:10:36.271Z,16.67
2023-04-16T07:13:03.598Z,19.58
2023-04-16T07:15:30.962Z,17.30
2023-04-16T07:17:58.463Z,24.67
2023-04-16T07:20:26.051Z,13.40
2023-04-16T07:22:53.409Z,14.45
2023-04-16T07:25:20.903Z,12.38
2023-04-16T07:27:48.221Z,10.02
2023-04-16T07:30:15.797Z,8.82
2023-04-16T07:32:43.235Z,9.52
2023-04-16T07:35:10.917Z,9.73
2023-04-16T07:37:38.192Z,9.45
2023-04-16T07:40:06.530Z,9.02
2023-04-16T07:42:33.897Z,8.35
2023-04-16T07:45:01.279Z,8.90
2023-04-16T07:47:28.559Z,8.32
2023-04-16T07:49:55.914Z,9.60
2023-04-16T07:52:23.238Z,9.30
2023-04-16T07:54:51.801Z,9.88
2023-04-16T07:57:19.238Z,10.93
2023-04-16T07:59:46.575Z,10.95
2023-04-16T08:02:16.683Z,9.00
2023-04-16T08:04:44.741Z,8.90
2023-04-16T08:07:12.292Z,9.18
2023-04-16T08:09:48.588Z,9.60
2023-04-16T08:12:17.321Z,9.95
2023-04-16T08:14:45.885Z,9.40
2023-04-16T08:17:14.035Z,9.43
2023-04-16T08:19:42.864Z,9.27
2023-04-16T08:22:10.426Z,9.38
2023-04-16T08:24:37.767Z,9.10
2023-04-16T08:27:17.699Z,8.88
2023-04-16T08:29:47.169Z,9.13
2023-04-16T08:32:14.478Z,9.02
2023-04-16T08:34:42.447Z,8.90
2023-04-16T08:37:09.906Z,9.38
2023-04-16T08:39:37.785Z,9.73
2023-04-16T08:42:06.304Z,9.98
2023-04-16T08:44:37.459Z,10.77
2023-04-16T08:47:09.424Z,9.87
2023-04-16T08:52:16.468Z,9.35
2023-04-16T08:54:56.608Z,10.02
2023-04-16T08:57:30.536Z,10.52
2023-04-16T08:59:58.321Z,11.18
2023-04-16T09:02:27.017Z,11.57
2023-04-16T09:04:56.496Z,11.57
2023-04-16T09:07:25.797Z,12.07
2023-04-16T09:09:54.682Z,10.30
2023-04-16T09:12:24.252Z,11.00
2023-04-16T09:14:51.638Z,10.52
2023-04-16T09:17:19.571Z,10.43
2023-04-16T09:19:46.884Z,10.70
2023-04-16T09:22:14.271Z,10.18
2023-04-16T09:24:41.989Z,9.85
2023-04-16T09:27:09.491Z,9.30
2023-04-16T09:29:39.424Z,9.27
2023-04-16T09:32:09.219Z,8.35
2023-04-16T09:35:03.724Z,8.63
2023-04-16T09:37:31.809Z,8.20
2023-04-16T09:40:01.464Z,7.35
2023-04-16T09:42:31.898Z,7.95
2023-04-16T09:45:01.419Z,7.80
2023-04-16T09:47:43.504Z,8.15
2023-04-16T09:50:17.784Z,7.70
2023-04-16T09:52:51.089Z,7.28
2023-04-16T09:55:24.079Z,7.07
2023-04-16T09:58:02.022Z,6.72
2023-04-16T10:00:31.074Z,7.90
2023-04-16T10:03:07.865Z,6.97
2023-04-16T10:05:35.627Z,6.07
2023-04-16T10:08:03.022Z,6.30
2023-04-16T10:10:30.625Z,6.47
2023-04-16T10:12:58.462Z,5.90
2023-04-16T10:15:26.034Z,6.22
2023-04-16T10:17:54.227Z,6.03
2023-04-16T10:20:22.720Z,5.68
2023-04-16T10:22:50.256Z,5.65
2023-04-16T10:25:18.664Z,5.15
2023-04-16T10:27:46.556Z,4.53
2023-04-16T10:30:15.906Z,4.70
2023-04-16T10:32:44.569Z,4.75
2023-04-16T10:35:16.743Z,4.38
2023-04-16T10:37:45.314Z,3.80
2023-04-16T10:40:26.704Z,4.47
2023-04-16T10:42:58.331Z,3.58
2023-04-16T10:45:38.252Z,4.72
2023-04-16T10:48:08.619Z,4.43
2023-04-16T10:50:37.269Z,4.47
2023-04-16T10:53:20.978Z,3.83
2023-04-16T10:56:24.839Z,3.53
2023-04-16T10:58:55.272Z,4.10
2023-04-16T11:01:37.954Z,4.28
2023-04-16T11:04:43.930Z,3.13
2023-04-16T11:07:14.093Z,2.70
2023-04-16T11:09:51.643Z,2.75
2023-04-16T11:12:48.431Z,2.67
2023-04-16T11:15:23.449Z,2.90
2023-04-16T11:17:51.752Z,2.58
2023-04-16T11:20:26.673Z,2.33
2023-04-16T11:22:57.883Z,2.55
2023-04-16T11:25:30.172Z,2.78
2023-04-16T11:27:59.193Z,1.98
2023-04-16T11:30:37.221Z,2.60
2023-04-16T11:33:05.989Z,2.13
2023-04-16T11:35:33.474Z,2.03
2023-04-16T11:38:00.884Z,2.42
2023-04-16T11:40:31.795Z,2.80
2023-04-16T11:43:17.473Z,2.00
2023-04-16T11:46:10.293Z,2.40
2023-04-16T11:48:53.958Z,2.20
2023-04-16T11:51:23.251Z,2.17
2023-04-16T11:53:53.201Z,2.20
2023-04-16T11:56:28.669Z,2.03
2023-04-16T11:59:28.208Z,3.17
2023-04-16T12:01:56.071Z,3.58
2023-04-16T12:04:25.657Z,3.58
2023-04-16T12:07:25.477Z,4.28
2023-04-16T12:10:08.369Z,4.05
2023-04-16T12:12:35.861Z,2.67
2023-04-16T12:15:04.528Z,2.58
2023-04-16T12:17:33.878Z,3.10
2023-04-16T12:20:05.792Z,3.53
2023-04-16T12:22:36.727Z,3.53
2023-04-16T12:25:13.103Z,3.90
2023-04-16T12:27:50.049Z,3.08
2023-04-16T12:30:22.343Z,3.30
2023-04-16T12:32:52.529Z,3.03
2023-04-16T12:35:33.985Z,3.15
2023-04-16T12:38:01.618Z,3.03
2023-04-16T12:40:28.924Z,3.22
2023-04-16T12:42:56.194Z,4.30
2023-04-16T12:45:25.524Z,3.55
2023-04-16T12:47:52.913Z,4.25
2023-04-16T12:50:20.205Z,3.30
2023-04-16T12:52:47.787Z,3.30
2023-04-16T12:55:15.081Z,3.20
2023-04-16T12:57:42.755Z,3.58
2023-04-16T13:00:11.243Z,5.57
2023-04-16T13:02:38.774Z,4.97
2023-04-16T13:05:06.639Z,3.95
2023-04-16T13:07:34.268Z,3.65
2023-04-16T13:10:01.968Z,4.20
2023-04-16T13:12:29.566Z,4.35
2023-04-16T13:14:56.820Z,4.70
2023-04-16T13:17:24.176Z,5.28
2023-04-16T13:19:51.450Z,4.03
2023-04-16T13:22:18.863Z,3.80
2023-04-16T13:24:46.331Z,4.13
2023-04-16T13:27:16.118Z,3.13
2023-04-16T13:29:43.513Z,3.42
2023-04-16T13:32:13.682Z,3.83
2023-04-16T13:34:41.101Z,4.07
2023-04-16T13:37:08.465Z,3.60
2023-04-16T13:39:35.756Z,4.18
2023-04-16T13:42:03.075Z,4.13
2023-04-16T13:44:30.422Z,3.85
2023-04-16T13:46:57.929Z,3.20
2023-04-16T13:49:25.473Z,3.70
2023-04-16T13:51:52.744Z,2.72
2023-04-16T13:54:20.069Z,3.58
2023-04-16T13:56:47.482Z,3.08
2023-04-16T13:59:15.838Z,2.90
2023-04-16T14:01:43.108Z,3.05
2023-04-16T14:04:10.467Z,3.20
2023-04-16T14:06:37.798Z,3.20
2023-04-16T14:09:05.499Z,2.75
2023-04-16T14:11:32.834Z,3.38
2023-04-16T14:14:00.313Z,3.63
2023-04-16T14:16:27.833Z,3.40
2023-04-16T14:18:55.405Z,3.47
2023-04-16T14:21:22.684Z,2.55
2023-04-16T14:23:50.012Z,3.03
2023-04-16T14:26:17.325Z,2.72
2023-04-16T14:28:44.856Z,2.65
2023-04-16T14:31:12.177Z,3.10
2023-04-16T14:33:39.492Z,3.00
2023-04-16T14:36:06.991Z,2.53
2023-04-16T14:38:34.390Z,2.05
2023-04-16T14:41:01.759Z,2.55
2023-04-16T14:43:29.224Z,2.80
2023-04-16T14:45:58.580Z,3.17
2023-04-16T14:48:26.127Z,2.72
2023-04-16T14:50:53.827Z,2.40
2023-04-16T14:53:22.767Z,3.25
2023-04-16T14:55:50.493Z,2.40
2023-04-16T14:58:17.823Z,1.83
2023-04-16T15:00:45.380Z,1.88
2023-04-16T15:03:13.005Z,1.92
2023-04-16T15:05:40.681Z,1.70
2023-04-16T15:08:08.047Z,1.90
2023-04-16T15:10:35.448Z,2.35
2023-04-16T15:13:02.799Z,1.48
2023-04-16T15:15:30.076Z,1.67
2023-04-16T15:17:57.812Z,1.95
2023-04-16T15:20:25.217Z,1.73
2023-04-16T15:22:53.803Z,1.52
2023-04-16T15:25:21.295Z,1.90
2023-04-16T15:27:48.726Z,1.52
2023-04-16T15:30:16.210Z,1.73
2023-04-16T15:32:46.771Z,1.55
2023-04-16T15:35:14.588Z,1.60
2023-04-16T15:37:41.904Z,1.33
2023-04-16T15:40:09.499Z,1.73
2023-04-16T15:42:36.846Z,1.42
2023-04-16T15:45:04.623Z,1.70
2023-04-16T15:47:31.945Z,1.95
2023-04-16T15:49:59.293Z,2.20
2023-04-16T15:52:26.629Z,1.90
2023-04-16T15:54:54.841Z,1.98
2023-04-16T15:57:22.133Z,2.00
2023-04-16T16:00:03.460Z,2.22
2023-04-16T16:02:34.606Z,3.60
2023-04-16T16:05:03.351Z,3.00
2023-04-16T16:07:31.096Z,3.53
2023-04-16T16:09:58.465Z,3.38
2023-04-16T16:12:25.757Z,3.10
2023-04-16T16:14:53.277Z,3.15
2023-04-16T16:17:20.764Z,3.13
2023-04-16T16:19:48.134Z,3.85
2023-04-16T16:22:20.245Z,4.32
2023-04-16T16:24:53.601Z,3.35
2023-04-16T16:27:21.077Z,3.15
2023-04-16T16:29:48.419Z,3.28
2023-04-16T16:32:16.613Z,3.13
2023-04-16T16:34:43.945Z,2.72
2023-04-16T16:37:11.253Z,2.13
2023-04-16T16:39:39.011Z,2.53
2023-04-16T16:42:08.585Z,2.25
2023-04-16T16:44:36.638Z,2.15
2023-04-16T16:47:04.034Z,2.80
2023-04-16T16:49:31.488Z,2.00
2023-04-16T16:51:58.766Z,2.67
2023-04-16T16:54:26.129Z,2.90
2023-04-16T16:56:53.417Z,3.10
2023-04-16T16:59:20.817Z,2.30
2023-04-16T17:01:48.116Z,2.40
2023-04-16T17:04:17.172Z,2.25
2023-04-16T17:06:46.889Z,2.60
2023-04-16T17:09:14.325Z,3.00
2023-04-16T17:11:41.867Z,3.45
2023-04-16T17:14:09.270Z,3.25
2023-04-16T17:16:36.564Z,4.07
2023-04-16T17:19:04.006Z,3.60
2023-04-16T17:21:33.140Z,3.72
2023-04-16T17:24:00.520Z,4.05
2023-04-16T17:26:27.841Z,3.90
2023-04-16T17:28:56.737Z,5.00
2023-04-16T17:31:26.694Z,7.05
2023-04-16T17:33:54.320Z,5.38
2023-04-16T17:36:23.024Z,6.53
2023-04-16T17:38:50.698Z,8.63
2023-04-16T17:41:18.080Z,8.75
2023-04-16T17:43:49.748Z,8.25
2023-04-16T17:46:17.215Z,10.05
2023-04-16T17:48:44.632Z,9.63
2023-04-16T17:51:12.773Z,9.38
2023-04-16T17:53:42.578Z,9.48
2023-04-16T17:56:10.092Z,10.35
2023-04-16T17:58:37.464Z,10.57
2023-04-16T18:01:05.377Z,10.43
2023-04-16T18:03:33.490Z,11.70
2023-04-16T18:06:01.082Z,9.73
2023-04-16T18:08:28.908Z,10.70
2023-04-16T18:10:56.823Z,11.05
2023-04-16T18:13:24.692Z,9.57
2023-04-16T18:15:53.009Z,9.75
2023-04-16T18:18:21.314Z,8.48
2023-04-16T18:20:48.666Z,6.15
2023-04-16T18:23:16.048Z,5.68
2023-04-16T18:25:43.456Z,5.82
2023-04-16T18:28:13.859Z,4.85
2023-04-16T18:30:42.534Z,5.53
2023-04-16T18:33:43.499Z,5.65
2023-04-16T18:36:02.385Z,5.03
2023-04-16T18:38:31.424Z,5.13
2023-04-16T18:40:58.938Z,5.40
2023-04-16T18:43:26.328Z,4.90
2023-04-16T18:45:53.676Z,5.20
2023-04-16T18:48:21.039Z,5.25
2023-04-16T18:50:48.409Z,4.68
2023-04-16T18:53:15.711Z,4.78
2023-04-16T18:55:43.031Z,4.85
2023-04-16T18:58:10.906Z,4.63
2023-04-16T19:00:38.265Z,3.88
2023-04-16T19:03:07.162Z,3.10
2023-04-16T19:05:34.749Z,2.90
2023-04-16T19:08:02.033Z,2.85
2023-04-16T19:10:29.572Z,2.53
2023-04-16T19:12:57.269Z,3.35
2023-04-16T19:15:24.595Z,2.55
2023-04-16T19:17:51.909Z,2.63
2023-04-16T19:20:20.217Z,2.67
2023-04-16T19:22:47.507Z,2.85
2023-04-16T19:25:14.872Z,2.90
2023-04-16T19:27:42.235Z,2.95
2023-04-16T19:30:10.314Z,2.67
2023-04-16T19:32:37.659Z,2.80
2023-04-16T19:35:05.522Z,3.13
2023-04-16T19:37:32.868Z,3.80
2023-04-16T19:40:01.825Z,3.97
2023-04-16T19:42:29.159Z,3.33
2023-04-16T19:44:56.803Z,3.75
2023-04-16T19:47:24.444Z,3.40
2023-04-16T19:49:51.912Z,3.42
2023-04-16T19:52:19.228Z,3.67
2023-04-16T19:54:46.613Z,3.83
2023-04-16T19:57:13.942Z,4.47
2023-04-16T19:59:41.316Z,4.00
2023-04-16T20:02:08.704Z,4.22
2023-04-16T20:04:36.042Z,4.18
2023-04-16T20:07:03.487Z,4.70
2023-04-16T20:09:31.046Z,4.95
2023-04-16T20:11:58.407Z,5.43
2023-04-16T20:14:25.692Z,5.07
2023-04-16T20:16:53.082Z,5.72
2023-04-16T20:19:20.416Z,5.75
2023-04-16T20:21:47.743Z,5.28
2023-04-16T20:24:15.513Z,5.32
2023-04-16T20:26:42.867Z,5.78
2023-04-16T20:29:10.583Z,4.95
2023-04-16T20:31:38.043Z,5.80
2023-04-16T20:34:05.342Z,5.63
2023-04-16T20:36:32.756Z,5.70
2023-04-16T20:39:02.162Z,5.45
2023-04-16T20:41:30.202Z,5.75
2023-04-16T20:43:57.494Z,5.10
2023-04-16T20:46:24.860Z,5.35
2023-04-16T20:48:52.196Z,5.60
2023-04-16T20:51:19.650Z,5.22
2023-04-16T20:53:46.997Z,5.50
2023-04-16T20:56:15.129Z,5.68
2023-04-16T20:58:43.419Z,5.78
2023-04-16T21:01:10.907Z,5.20
2023-04-16T21:03:38.362Z,6.40
2023-04-16T21:06:05.934Z,5.55
2023-04-16T21:08:33.324Z,5.50
2023-04-16T21:11:00.674Z,6.15
2023-04-16T21:13:28.232Z,6.43
2023-04-16T21:15:55.914Z,6.32
2023-04-16T21:18:23.205Z,6.43
2023-04-16T21:20:50.530Z,6.30
2023-04-16T21:23:18.929Z,6.00
2023-04-16T21:25:46.253Z,6.18
2023-04-16T21:28:13.601Z,7.13
2023-04-16T21:30:41.381Z,6.05
2023-04-16T21:33:08.707Z,6.95
2023-04-16T21:35:36.165Z,6.85
2023-04-16T21:38:03.510Z,7.35
2023-04-16T21:40:30.904Z,7.50
2023-04-16T21:42:58.237Z,8.00
2023-04-16T21:45:25.567Z,7.85
2023-04-16T21:47:53.003Z,7.00
2023-04-16T21:50:20.385Z,7.10
2023-04-16T21:52:47.686Z,7.35
2023-04-16T21:55:14.973Z,7.13
2023-04-16T21:57:42.306Z,7.30
2023-04-16T22:00:14.202Z,7.95
2023-04-16T22:02:42.916Z,7.95
2023-04-16T22:05:11.362Z,8.23
2023-04-16T22:07:39.029Z,6.70
2023-04-16T22:10:08.731Z,7.10
2023-04-16T22:12:39.947Z,7.22
2023-04-16T22:15:09.045Z,7.53
2023-04-16T22:17:36.590Z,7.97
2023-04-16T22:20:14.537Z,8.40
2023-04-16T22:22:42.265Z,9.63
2023-04-16T22:25:10.330Z,8.60
2023-04-16T22:27:38.161Z,8.93
2023-04-16T22:30:09.204Z,8.52
2023-04-16T22:32:36.659Z,9.37
2023-04-16T22:35:04.416Z,9.10
2023-04-16T22:37:31.808Z,9.15
2023-04-16T22:39:59.144Z,8.77
2023-04-16T22:42:27.018Z,8.82
2023-04-16T22:44:54.307Z,8.73
2023-04-16T22:47:21.705Z,8.65
2023-04-16T22:49:49.071Z,8.88
2023-04-16T22:52:16.471Z,8.35
2023-04-16T22:54:43.772Z,8.25
2023-04-16T22:57:11.092Z,8.55
2023-04-16T22:59:38.456Z,8.93
2023-04-16T23:02:05.980Z,9.40
2023-04-16T23:04:33.381Z,8.13
2023-04-16T23:07:00.888Z,7.47
2023-04-16T23:09:28.175Z,8.60
2023-04-16T23:11:55.910Z,8.07
2023-04-16T23:14:23.697Z,7.93
2023-04-16T23:16:51.027Z,7.40
2023-04-16T23:19:18.386Z,7.13
2023-04-16T23:21:45.849Z,7.30
2023-04-16T23:24:13.184Z,7.60
2023-04-16T23:26:40.467Z,7.18
2023-04-16T23:29:07.824Z,8.48
2023-04-16T23:31:35.250Z,6.90
2023-04-16T23:34:02.752Z,7.78
2023-04-16T23:36:30.001Z,8.25
2023-04-16T23:38:57.341Z,8.30
2023-04-16T23:41:24.647Z,7.47
2023-04-16T23:43:52.031Z,8.05
2023-04-16T23:46:19.358Z,8.10
2023-04-16T23:48:46.685Z,7.88
2023-04-16T23:51:14.019Z,8.75
2023-04-16T23:53:41.371Z,7.07
2023-04-16T23:56:11.161Z,7.60
2023-04-16T23:58:38.625Z,7.88
